Terminal Aerodrome Forecast
Issued by NWS

Home | Current Version | Previous Version | Text Only | Print | Product List | Glossary Off
Versions: 1 2 3 4 5 6 7 8 9 10 11 12 13 14 15 16 17

992
FTUS43 KICT 271501 AAB
TAFHUT
TAF AMD
KHUT 271501Z 2715/2812 15012KT P6SM SCT015 BKN025
      TEMPO 2715/2716 OVC012
     FM271700 16012KT P6SM BKN050
     FM271900 17017G25KT P6SM SCT050=

USA.gov is the U.S. government's official web portal to all federal, state and local government web resources and services.